createdAt,value
2023-08-17T00:00:22.357Z,19.75
2023-08-17T00:00:54.160Z,19.77
2023-08-17T00:01:26.489Z,19.71
2023-08-17T00:01:58.278Z,19.71
2023-08-17T00:02:30.212Z,19.73
2023-08-17T00:03:02.458Z,19.73
2023-08-17T00:03:34.424Z,19.71
2023-08-17T00:04:06.550Z,19.71
2023-08-17T00:04:38.479Z,19.68
2023-08-17T00:05:10.908Z,19.62
2023-08-17T00:05:43.471Z,19.62
2023-08-17T00:06:15.304Z,19.62
2023-08-17T00:06:48.069Z,19.61
2023-08-17T00:07:20.378Z,19.62
2023-08-17T00:07:53.498Z,19.63
2023-08-17T00:08:25.410Z,19.61
2023-08-17T00:08:57.571Z,19.67
2023-08-17T00:09:29.421Z,19.66
2023-08-17T00:10:01.917Z,19.64
2023-08-17T00:10:33.923Z,19.70
2023-08-17T00:11:06.440Z,19.52
2023-08-17T00:11:38.180Z,19.50
2023-08-17T00:12:10.087Z,19.54
2023-08-17T00:12:42.000Z,19.60
2023-08-17T00:13:15.457Z,19.62
2023-08-17T00:13:47.307Z,19.64
2023-08-17T00:14:19.445Z,19.62
2023-08-17T00:14:52.028Z,19.66
2023-08-17T00:15:24.065Z,19.66
2023-08-17T00:15:56.460Z,19.67
2023-08-17T00:16:28.630Z,19.68
2023-08-17T00:17:00.561Z,19.64
2023-08-17T00:17:32.424Z,19.58
2023-08-17T00:18:04.577Z,19.60
2023-08-17T00:18:36.438Z,19.60
2023-08-17T00:19:08.723Z,19.58
2023-08-17T00:19:40.565Z,19.56
2023-08-17T00:20:12.570Z,19.52
2023-08-17T00:20:45.330Z,19.52
2023-08-17T00:21:17.724Z,19.49
2023-08-17T00:21:50.525Z,19.51
2023-08-17T00:22:22.265Z,19.47
2023-08-17T00:22:54.435Z,19.49
2023-08-17T00:23:26.252Z,19.50
2023-08-17T00:23:58.366Z,19.51
2023-08-17T00:24:30.580Z,19.50
2023-08-17T00:25:05.716Z,19.51
2023-08-17T00:25:37.581Z,19.58
2023-08-17T00:26:10.024Z,19.62
2023-08-17T00:26:41.895Z,19.64
2023-08-17T00:27:13.666Z,19.68
2023-08-17T00:27:45.444Z,19.69
2023-08-17T00:28:17.276Z,19.71
2023-08-17T00:28:49.031Z,19.74
2023-08-17T00:29:20.803Z,19.72
2023-08-17T00:29:52.636Z,19.70
2023-08-17T00:30:24.621Z,19.63
2023-08-17T00:30:56.654Z,19.63
2023-08-17T00:31:28.407Z,19.65
2023-08-17T00:32:00.698Z,19.63
2023-08-17T00:32:32.497Z,19.64
2023-08-17T00:33:04.688Z,19.65
2023-08-17T00:33:36.459Z,19.56
2023-08-17T00:34:08.221Z,19.50
2023-08-17T00:34:40.046Z,19.48
2023-08-17T00:35:11.884Z,19.48
2023-08-17T00:35:43.958Z,19.46
2023-08-17T00:36:15.867Z,19.47
2023-08-17T00:36:47.749Z,19.48
2023-08-17T00:37:19.629Z,19.45
2023-08-17T00:37:51.507Z,19.46
2023-08-17T00:38:23.520Z,19.43
2023-08-17T00:38:55.314Z,19.36
2023-08-17T00:39:27.305Z,19.35
2023-08-17T00:39:59.184Z,19.40
2023-08-17T00:40:30.953Z,19.48
2023-08-17T00:41:02.727Z,19.47
2023-08-17T00:41:35.439Z,19.46
2023-08-17T00:42:09.080Z,19.46
2023-08-17T00:42:40.916Z,19.46
2023-08-17T00:43:12.716Z,19.43
2023-08-17T00:43:44.499Z,19.39
2023-08-17T00:44:16.214Z,19.34
2023-08-17T00:44:48.222Z,19.32
2023-08-17T00:45:20.044Z,19.33
2023-08-17T00:45:52.789Z,19.29
2023-08-17T00:46:25.226Z,19.22
2023-08-17T00:46:57.632Z,19.19
2023-08-17T00:47:29.631Z,19.19
2023-08-17T00:48:02.760Z,19.15
2023-08-17T00:48:35.398Z,19.16
2023-08-17T00:49:07.764Z,19.21
2023-08-17T00:49:39.769Z,19.26
2023-08-17T00:50:12.854Z,19.29
2023-08-17T00:50:46.362Z,19.30
2023-08-17T00:51:21.275Z,19.31
2023-08-17T00:51:53.261Z,19.32
2023-08-17T00:52:25.153Z,19.31
2023-08-17T00:52:57.303Z,19.34
2023-08-17T00:53:32.553Z,19.28
2023-08-17T00:54:05.505Z,19.26
2023-08-17T00:54:37.384Z,19.28
2023-08-17T00:55:12.298Z,19.28
2023-08-17T00:55:44.556Z,19.26
2023-08-17T00:56:16.793Z,19.28
2023-08-17T00:56:48.818Z,19.21
2023-08-17T00:57:21.956Z,19.22
2023-08-17T00:57:56.633Z,19.20
2023-08-17T00:58:29.094Z,19.18
2023-08-17T00:59:01.065Z,19.19
2023-08-17T00:59:36.997Z,19.18
2023-08-17T01:00:16.381Z,19.16
2023-08-17T01:00:50.195Z,19.10
2023-08-17T01:01:22.611Z,19.11
2023-08-17T01:01:54.675Z,19.09
2023-08-17T01:02:26.540Z,19.10
2023-08-17T01:02:58.482Z,19.10
2023-08-17T01:03:31.386Z,19.12
2023-08-17T01:04:04.870Z,19.13
2023-08-17T01:04:36.789Z,19.16
2023-08-17T01:05:09.168Z,19.14
2023-08-17T01:05:41.370Z,19.13
2023-08-17T01:06:13.412Z,19.12
2023-08-17T01:06:45.179Z,19.19
2023-08-17T01:07:16.988Z,19.18
2023-08-17T01:07:49.021Z,19.18
2023-08-17T01:08:20.758Z,19.19
2023-08-17T01:08:52.660Z,19.21
2023-08-17T01:09:24.682Z,19.16
2023-08-17T01:09:56.673Z,19.13
2023-08-17T01:10:42.368Z,19.10
2023-08-17T01:11:29.963Z,19.07
2023-08-17T01:12:15.387Z,19.05
2023-08-17T01:13:01.742Z,19.07
2023-08-17T01:13:41.708Z,19.08
2023-08-17T01:14:20.756Z,19.08
2023-08-17T01:15:01.540Z,19.07
2023-08-17T01:15:38.174Z,19.03
2023-08-17T01:16:15.851Z,19.03
2023-08-17T01:16:53.565Z,19.04
2023-08-17T01:17:41.036Z,19.01
2023-08-17T01:18:24.354Z,18.99
2023-08-17T01:18:58.698Z,18.98
2023-08-17T01:19:30.776Z,19.04
2023-08-17T01:20:05.229Z,19.07
2023-08-17T01:20:39.138Z,19.03
2023-08-17T01:21:17.543Z,19.07
2023-08-17T01:21:51.803Z,19.06
2023-08-17T01:22:25.767Z,19.01
2023-08-17T01:23:06.097Z,18.96
2023-08-17T01:23:37.917Z,18.97
2023-08-17T01:24:09.969Z,18.97
2023-08-17T01:24:41.788Z,18.95
2023-08-17T01:25:13.850Z,18.92
2023-08-17T01:25:45.924Z,18.96
2023-08-17T01:26:18.096Z,18.99
2023-08-17T01:26:50.380Z,18.96
2023-08-17T01:27:22.118Z,18.89
2023-08-17T01:27:53.878Z,18.92
2023-08-17T01:28:25.916Z,18.88
2023-08-17T01:28:57.770Z,18.91
2023-08-17T01:29:29.745Z,18.87
2023-08-17T01:30:02.910Z,18.88
2023-08-17T01:30:40.653Z,18.88
2023-08-17T01:31:32.727Z,18.86
2023-08-17T01:32:27.945Z,18.78
2023-08-17T01:33:10.638Z,18.81
2023-08-17T01:33:49.084Z,18.81
2023-08-17T01:34:25.161Z,18.85
2023-08-17T01:35:05.843Z,18.83
2023-08-17T01:35:55.092Z,18.81
2023-08-17T01:36:31.549Z,18.83
2023-08-17T01:37:08.515Z,18.81
2023-08-17T01:37:43.383Z,18.80
2023-08-17T01:38:21.520Z,18.82
2023-08-17T01:38:56.659Z,18.78
2023-08-17T01:39:44.146Z,18.76
2023-08-17T01:40:16.853Z,18.80
2023-08-17T01:40:51.560Z,18.74
2023-08-17T01:41:24.729Z,18.81
2023-08-17T01:41:58.486Z,18.84
2023-08-17T01:42:30.663Z,18.85
2023-08-17T01:43:05.048Z,18.84
2023-08-17T01:43:36.957Z,18.76
2023-08-17T01:44:08.944Z,18.78
2023-08-17T01:44:41.150Z,18.81
2023-08-17T01:45:13.582Z,18.74
2023-08-17T01:45:45.350Z,18.70
2023-08-17T01:46:18.438Z,18.69
2023-08-17T01:46:50.378Z,18.72
2023-08-17T01:47:25.916Z,18.73
2023-08-17T01:47:58.581Z,18.70
2023-08-17T01:48:30.584Z,18.72
2023-08-17T01:49:02.381Z,18.66
2023-08-17T01:49:36.018Z,18.60
2023-08-17T01:50:08.119Z,18.58
2023-08-17T01:50:39.994Z,18.65
2023-08-17T01:51:13.188Z,18.67
2023-08-17T01:51:44.973Z,18.71
2023-08-17T01:52:16.793Z,18.73
2023-08-17T01:52:48.854Z,18.69
2023-08-17T01:53:20.977Z,18.68
2023-08-17T01:53:54.185Z,18.67
2023-08-17T01:54:27.313Z,18.70
2023-08-17T01:54:59.074Z,18.69
2023-08-17T01:55:31.358Z,18.68
2023-08-17T01:56:03.490Z,18.71
2023-08-17T01:56:35.284Z,18.74
2023-08-17T01:57:07.241Z,18.75
2023-08-17T01:57:40.038Z,18.69
2023-08-17T01:58:11.881Z,18.71
2023-08-17T01:58:44.088Z,18.77
2023-08-17T01:59:15.993Z,18.76
2023-08-17T01:59:47.903Z,18.71
2023-08-17T02:00:20.508Z,18.71
2023-08-17T02:00:52.280Z,18.66
2023-08-17T02:01:25.057Z,18.64
2023-08-17T02:01:57.002Z,18.55
2023-08-17T02:02:30.776Z,18.54
2023-08-17T02:03:02.670Z,18.56
2023-08-17T02:03:35.410Z,18.54
2023-08-17T02:04:07.463Z,18.49
2023-08-17T02:04:39.277Z,18.52
2023-08-17T02:05:12.947Z,18.47
2023-08-17T02:05:48.202Z,18.51
2023-08-17T02:06:20.979Z,18.51
2023-08-17T02:06:54.277Z,18.51
2023-08-17T02:07:26.285Z,18.47
2023-08-17T02:07:58.245Z,18.43
2023-08-17T02:08:30.844Z,18.47
2023-08-17T02:09:03.264Z,18.51
2023-08-17T02:09:35.275Z,18.54
2023-08-17T02:10:07.809Z,18.54
2023-08-17T02:10:39.888Z,18.56
2023-08-17T02:11:12.399Z,18.52
2023-08-17T02:11:44.351Z,18.48
2023-08-17T02:12:17.888Z,18.43
2023-08-17T02:12:49.825Z,18.45
2023-08-17T02:13:22.474Z,18.48
2023-08-17T02:13:55.138Z,18.48
2023-08-17T02:14:27.031Z,18.43
2023-08-17T02:14:58.856Z,18.39
2023-08-17T02:15:31.590Z,18.38
2023-08-17T02:16:03.722Z,18.44
2023-08-17T02:16:35.557Z,18.50
2023-08-17T02:17:07.606Z,18.51
2023-08-17T02:17:39.458Z,18.54
2023-08-17T02:18:11.328Z,18.50
2023-08-17T02:18:43.196Z,18.49
2023-08-17T02:19:15.117Z,18.50
2023-08-17T02:19:48.779Z,18.52
2023-08-17T02:20:21.999Z,18.49
2023-08-17T02:20:53.841Z,18.53
2023-08-17T02:21:26.741Z,18.49
2023-08-17T02:22:00.022Z,18.53
2023-08-17T02:22:33.269Z,18.52
2023-08-17T02:23:05.369Z,18.52
2023-08-17T02:23:37.281Z,18.52
2023-08-17T02:24:09.057Z,18.55
2023-08-17T02:24:41.915Z,18.53
2023-08-17T02:25:13.758Z,18.53
2023-08-17T02:25:46.245Z,18.57
2023-08-17T02:26:18.978Z,18.58
2023-08-17T02:26:51.169Z,18.55
2023-08-17T02:27:23.485Z,18.55
2023-08-17T02:27:55.445Z,18.56
2023-08-17T02:28:27.250Z,18.57
2023-08-17T02:28:59.352Z,18.58
2023-08-17T02:29:31.207Z,18.56
2023-08-17T02:30:05.191Z,18.56
2023-08-17T02:30:37.193Z,18.58
2023-08-17T02:31:09.440Z,18.58
2023-08-17T02:31:41.328Z,18.60
2023-08-17T02:32:13.201Z,18.63
2023-08-17T02:32:45.023Z,18.65
2023-08-17T02:33:16.876Z,18.63
2023-08-17T02:33:48.782Z,18.62
2023-08-17T02:34:20.772Z,18.62
2023-08-17T02:34:52.618Z,18.63
2023-08-17T02:35:25.303Z,18.69
2023-08-17T02:35:57.506Z,18.65
2023-08-17T02:36:30.910Z,18.68
2023-08-17T02:37:02.823Z,18.68
2023-08-17T02:37:35.264Z,18.65
2023-08-17T02:38:07.144Z,18.65
2023-08-17T02:38:39.218Z,18.66
2023-08-17T02:39:11.104Z,18.65
2023-08-17T02:40:19.769Z,18.60
2023-08-17T02:40:51.666Z,18.56
2023-08-17T02:41:23.732Z,18.59
2023-08-17T02:41:56.234Z,18.60
2023-08-17T02:42:28.083Z,18.59
2023-08-17T02:43:00.214Z,18.63
2023-08-17T02:43:32.056Z,18.58
2023-08-17T02:44:05.138Z,18.53
2023-08-17T02:44:37.065Z,18.49
2023-08-17T02:45:09.682Z,18.51
2023-08-17T02:45:42.247Z,18.46
2023-08-17T02:46:33.033Z,18.44
2023-08-17T02:47:05.578Z,18.43
2023-08-17T02:47:37.398Z,18.40
2023-08-17T02:48:09.320Z,18.44
2023-08-17T02:48:41.187Z,18.43
2023-08-17T02:49:13.100Z,18.41
2023-08-17T02:49:44.941Z,18.47
2023-08-17T02:50:17.377Z,18.46
2023-08-17T02:50:49.145Z,18.45
2023-08-17T02:51:21.149Z,18.44
2023-08-17T02:51:53.277Z,18.40
2023-08-17T02:52:25.306Z,18.39
2023-08-17T02:52:57.653Z,18.36
2023-08-17T02:53:29.499Z,18.38
2023-08-17T02:54:02.135Z,18.37
2023-08-17T02:54:33.979Z,18.37
2023-08-17T02:55:06.412Z,18.33
2023-08-17T02:55:38.231Z,18.33
2023-08-17T02:56:12.966Z,18.33
2023-08-17T02:56:45.266Z,18.31
2023-08-17T02:57:17.250Z,18.28
2023-08-17T02:57:50.684Z,18.28
2023-08-17T02:58:23.393Z,18.25
2023-08-17T02:58:56.297Z,18.22
2023-08-17T02:59:28.504Z,18.24
2023-08-17T03:00:00.329Z,18.24
2023-08-17T03:00:35.073Z,18.27
2023-08-17T03:01:06.972Z,18.21
2023-08-17T03:01:40.351Z,18.22
2023-08-17T03:02:12.295Z,18.15
2023-08-17T03:02:44.150Z,18.16
2023-08-17T03:03:16.047Z,18.17
2023-08-17T03:03:47.856Z,18.13
2023-08-17T03:04:19.677Z,18.14
2023-08-17T03:04:51.493Z,18.07
2023-08-17T03:05:23.309Z,18.09
2023-08-17T03:05:55.062Z,18.12
2023-08-17T03:06:26.827Z,18.05
2023-08-17T03:06:58.629Z,18.04
2023-08-17T03:07:30.386Z,18.12
2023-08-17T03:08:02.225Z,18.14
2023-08-17T03:08:34.020Z,18.06
2023-08-17T03:09:05.800Z,18.04
2023-08-17T03:09:37.637Z,17.98
2023-08-17T03:10:09.768Z,18.01
2023-08-17T03:10:41.587Z,17.98
2023-08-17T03:11:13.504Z,18.04
2023-08-17T03:11:45.366Z,17.98
2023-08-17T03:12:17.215Z,18.02
2023-08-17T03:12:49.098Z,17.99
2023-08-17T03:13:21.640Z,17.99
2023-08-17T03:13:55.218Z,17.98
2023-08-17T03:14:27.028Z,17.93
2023-08-17T03:14:58.901Z,17.91
2023-08-17T03:15:31.190Z,17.89
2023-08-17T03:16:03.680Z,17.94
2023-08-17T03:16:35.855Z,17.95
2023-08-17T03:17:07.697Z,17.96
2023-08-17T03:17:40.206Z,17.99
2023-08-17T03:18:12.214Z,18.02
2023-08-17T03:18:45.735Z,17.97
2023-08-17T03:19:18.577Z,17.93
2023-08-17T03:19:50.867Z,17.89
2023-08-17T03:20:22.766Z,17.90
2023-08-17T03:20:54.568Z,17.88
2023-08-17T03:21:26.372Z,17.92
2023-08-17T03:21:58.168Z,17.93
2023-08-17T03:22:30.037Z,17.97
2023-08-17T03:23:01.915Z,17.88
2023-08-17T03:23:33.993Z,17.91
2023-08-17T03:24:06.447Z,17.89
2023-08-17T03:24:38.353Z,17.93
2023-08-17T03:25:10.312Z,17.92
2023-08-17T03:25:42.648Z,17.92
2023-08-17T03:26:14.390Z,17.89
2023-08-17T03:26:46.787Z,17.86
2023-08-17T03:27:18.757Z,17.79
2023-08-17T03:27:51.505Z,17.83
2023-08-17T03:28:23.726Z,17.75
2023-08-17T03:28:56.029Z,17.70
2023-08-17T03:29:28.307Z,17.70
2023-08-17T03:30:01.229Z,17.71
2023-08-17T03:30:33.331Z,17.75
2023-08-17T03:31:05.250Z,17.77
2023-08-17T03:31:37.194Z,17.76
2023-08-17T03:32:09.210Z,17.76
2023-08-17T03:32:42.089Z,17.74
2023-08-17T03:33:14.033Z,17.75
2023-08-17T03:33:45.770Z,17.74
2023-08-17T03:34:17.528Z,17.75
2023-08-17T03:34:49.290Z,17.75
2023-08-17T03:35:21.151Z,17.75
2023-08-17T03:35:53.535Z,17.74
2023-08-17T03:36:25.316Z,17.77
2023-08-17T03:36:58.426Z,17.79
2023-08-17T03:37:31.017Z,17.72
2023-08-17T03:38:02.922Z,17.71
2023-08-17T03:38:34.759Z,17.73
2023-08-17T03:39:06.622Z,17.72
2023-08-17T03:39:38.418Z,17.70
2023-08-17T03:40:10.385Z,17.75
2023-08-17T03:40:42.220Z,17.75
2023-08-17T03:41:14.051Z,17.80
2023-08-17T03:41:46.094Z,17.82
2023-08-17T03:42:18.327Z,17.81
2023-08-17T03:42:50.064Z,17.84
2023-08-17T03:43:22.429Z,17.86
2023-08-17T03:43:54.369Z,17.89
2023-08-17T03:44:26.363Z,17.94
2023-08-17T03:44:58.449Z,17.97
2023-08-17T03:45:31.690Z,17.92
2023-08-17T03:46:05.507Z,18.00
2023-08-17T03:46:37.284Z,17.98
2023-08-17T03:47:10.176Z,17.99
2023-08-17T03:47:41.920Z,18.03
2023-08-17T03:48:13.704Z,18.01
2023-08-17T03:48:46.067Z,18.07
2023-08-17T03:49:17.861Z,18.07
2023-08-17T03:49:49.934Z,18.06
2023-08-17T03:50:22.324Z,18.12
2023-08-17T03:50:56.162Z,18.13
2023-08-17T03:51:27.941Z,18.11
2023-08-17T03:52:01.291Z,18.11
2023-08-17T03:52:33.069Z,18.11
2023-08-17T03:53:05.207Z,18.13
2023-08-17T03:53:37.314Z,18.15
2023-08-17T03:54:09.111Z,18.13
2023-08-17T03:54:41.044Z,18.11
2023-08-17T03:55:12.989Z,18.15
2023-08-17T03:55:49.119Z,18.13
2023-08-17T03:56:20.988Z,18.12
2023-08-17T03:56:53.978Z,18.15
2023-08-17T03:57:26.091Z,18.15
2023-08-17T03:57:58.200Z,18.18
2023-08-17T03:58:34.413Z,18.22
2023-08-17T03:59:06.379Z,18.16
2023-08-17T03:59:38.144Z,18.24
2023-08-17T04:00:11.416Z,18.22
2023-08-17T04:00:52.786Z,18.18
2023-08-17T04:01:30.716Z,18.22
2023-08-17T04:02:02.836Z,18.22
2023-08-17T04:02:34.670Z,18.20
2023-08-17T04:03:06.526Z,18.15
2023-08-17T04:03:38.329Z,18.18
2023-08-17T04:04:10.066Z,18.17
2023-08-17T04:04:41.848Z,18.13
2023-08-17T04:05:14.151Z,18.10
2023-08-17T04:05:46.080Z,18.05
2023-08-17T04:06:17.859Z,18.06
2023-08-17T04:06:49.745Z,18.10
2023-08-17T04:07:23.453Z,18.04
2023-08-17T04:08:02.693Z,18.08
2023-08-17T04:08:34.863Z,18.06
2023-08-17T04:09:07.029Z,18.09
2023-08-17T04:09:38.845Z,18.07
2023-08-17T04:10:10.616Z,18.02
2023-08-17T04:10:42.402Z,18.00
2023-08-17T04:11:14.149Z,18.11
2023-08-17T04:11:46.122Z,18.07
2023-08-17T04:12:18.708Z,18.14
2023-08-17T04:12:50.626Z,18.11
2023-08-17T04:13:22.343Z,18.09
2023-08-17T04:13:54.124Z,18.14
2023-08-17T04:14:26.602Z,18.07
2023-08-17T04:14:59.255Z,18.09
2023-08-17T04:15:32.393Z,18.11
2023-08-17T04:16:04.354Z,18.16
2023-08-17T04:16:36.483Z,18.14
2023-08-17T04:17:08.694Z,18.15
2023-08-17T04:17:40.582Z,18.17
2023-08-17T04:18:12.467Z,18.20
2023-08-17T04:18:44.349Z,18.20
2023-08-17T04:19:16.459Z,18.22
2023-08-17T04:19:48.661Z,18.23
2023-08-17T04:20:20.568Z,18.24
2023-08-17T04:20:55.036Z,18.27
2023-08-17T04:21:27.364Z,18.28
2023-08-17T04:21:59.607Z,18.33
2023-08-17T04:22:31.442Z,18.32
2023-08-17T04:23:03.328Z,18.30
2023-08-17T04:23:35.234Z,18.36
2023-08-17T04:24:07.448Z,18.38
2023-08-17T04:24:39.297Z,18.39
2023-08-17T04:25:11.342Z,18.34
2023-08-17T04:25:44.534Z,18.38
2023-08-17T04:26:16.517Z,18.38
2023-08-17T04:26:48.589Z,18.40
2023-08-17T04:27:20.923Z,18.42
2023-08-17T04:27:53.344Z,18.44
2023-08-17T04:28:25.350Z,18.42
2023-08-17T04:28:58.583Z,18.40
2023-08-17T04:29:31.745Z,18.34
2023-08-17T04:30:05.249Z,18.38
2023-08-17T04:30:44.414Z,18.35
2023-08-17T04:31:18.183Z,18.37
2023-08-17T04:31:52.649Z,18.38
2023-08-17T04:32:25.535Z,18.39
2023-08-17T04:32:57.456Z,18.43
2023-08-17T04:33:29.384Z,18.40
2023-08-17T04:34:01.229Z,18.40
2023-08-17T04:34:33.892Z,18.43
2023-08-17T04:35:06.164Z,18.41
2023-08-17T04:35:38.028Z,18.43
2023-08-17T04:36:09.922Z,18.45
2023-08-17T04:36:41.768Z,18.46
2023-08-17T04:37:13.526Z,18.46
2023-08-17T04:37:45.829Z,18.48
2023-08-17T04:38:17.713Z,18.49
2023-08-17T04:38:50.180Z,18.47
2023-08-17T04:39:21.952Z,18.50
2023-08-17T04:39:53.909Z,18.55
2023-08-17T04:40:27.082Z,18.45
2023-08-17T04:40:59.272Z,18.49
2023-08-17T04:41:31.847Z,18.54
2023-08-17T04:42:04.731Z,18.52
2023-08-17T04:42:39.101Z,18.57
2023-08-17T04:43:11.716Z,18.57
2023-08-17T04:43:44.120Z,18.52
2023-08-17T04:44:17.627Z,18.49
2023-08-17T04:44:49.394Z,18.50
2023-08-17T04:45:21.315Z,18.51
2023-08-17T04:45:53.889Z,18.50
2023-08-17T04:46:25.851Z,18.54
2023-08-17T04:46:57.616Z,18.55
2023-08-17T04:47:29.557Z,18.57
2023-08-17T04:48:01.579Z,18.55
2023-08-17T04:48:35.011Z,18.54
2023-08-17T04:49:07.112Z,18.49
2023-08-17T04:49:39.035Z,18.47
2023-08-17T04:50:11.488Z,18.46
2023-08-17T04:50:43.314Z,18.50
2023-08-17T04:51:17.044Z,18.54
2023-08-17T04:51:49.304Z,18.50
2023-08-17T04:52:22.308Z,18.54
2023-08-17T04:52:54.074Z,18.56
2023-08-17T04:53:26.104Z,18.54
2023-08-17T04:53:57.939Z,18.56
2023-08-17T04:54:30.535Z,18.51
2023-08-17T04:55:02.451Z,18.52
2023-08-17T04:55:36.343Z,18.58
2023-08-17T04:56:08.239Z,18.52
2023-08-17T04:56:40.079Z,18.55
2023-08-17T04:57:11.919Z,18.59
2023-08-17T04:57:43.679Z,18.57
2023-08-17T04:58:17.261Z,18.58
2023-08-17T04:58:49.258Z,18.59
2023-08-17T04:59:21.902Z,18.54
2023-08-17T04:59:53.672Z,18.50
2023-08-17T05:00:32.040Z,18.55
2023-08-17T05:01:04.636Z,18.56
2023-08-17T05:01:36.987Z,18.56
2023-08-17T05:02:09.578Z,18.59
2023-08-17T05:02:43.608Z,18.61
2023-08-17T05:03:24.128Z,18.62
2023-08-17T05:04:06.156Z,18.58
2023-08-17T05:04:40.104Z,18.58
2023-08-17T05:05:11.972Z,18.54
2023-08-17T05:05:43.788Z,18.51
2023-08-17T05:06:16.420Z,18.52
2023-08-17T05:06:48.651Z,18.55
2023-08-17T05:07:20.405Z,18.54
2023-08-17T05:07:53.954Z,18.54
2023-08-17T05:08:25.803Z,18.58
2023-08-17T05:08:58.030Z,18.54
2023-08-17T05:09:31.055Z,18.55
2023-08-17T05:10:04.234Z,18.56
2023-08-17T05:10:39.046Z,18.57
2023-08-17T05:11:11.211Z,18.59
2023-08-17T05:11:43.446Z,18.56
2023-08-17T05:12:16.419Z,18.59
2023-08-17T05:12:48.366Z,18.68
2023-08-17T05:13:20.789Z,18.72
2023-08-17T05:13:53.002Z,18.80
2023-08-17T05:14:24.801Z,18.72
2023-08-17T05:14:56.625Z,18.76
2023-08-17T05:15:28.606Z,18.91
2023-08-17T05:16:01.332Z,18.96
2023-08-17T05:16:33.976Z,18.96
2023-08-17T05:17:05.788Z,19.11
2023-08-17T05:17:37.727Z,19.22
2023-08-17T05:18:09.708Z,19.26
2023-08-17T05:18:42.683Z,19.36
2023-08-17T05:19:18.704Z,19.44
2023-08-17T05:19:50.923Z,19.59
2023-08-17T05:20:22.908Z,19.78
2023-08-17T05:20:55.131Z,19.88
2023-08-17T05:21:27.457Z,20.13
2023-08-17T05:21:59.260Z,20.17
2023-08-17T05:22:31.350Z,20.32
2023-08-17T05:23:03.460Z,20.35
2023-08-17T05:23:35.324Z,20.44
2023-08-17T05:24:07.394Z,20.31
2023-08-17T05:24:40.045Z,20.28
2023-08-17T05:25:12.729Z,20.50
2023-08-17T05:25:49.121Z,20.67
2023-08-17T05:26:21.373Z,20.60
2023-08-17T05:26:53.197Z,20.62
2023-08-17T05:27:25.262Z,20.54
2023-08-17T05:27:57.382Z,20.65
2023-08-17T05:28:29.815Z,20.79
2023-08-17T05:29:01.818Z,20.68
2023-08-17T05:29:33.638Z,20.58
2023-08-17T05:30:06.767Z,20.84
2023-08-17T05:30:38.560Z,20.91
2023-08-17T05:31:10.572Z,20.81
2023-08-17T05:31:45.971Z,20.94
2023-08-17T05:32:17.742Z,21.05
2023-08-17T05:32:50.275Z,21.03
2023-08-17T05:33:22.145Z,21.22
2023-08-17T05:33:54.456Z,20.85
2023-08-17T05:34:28.941Z,20.78
2023-08-17T05:35:01.951Z,20.82
2023-08-17T05:35:33.884Z,20.95
2023-08-17T05:36:05.830Z,20.96
2023-08-17T05:36:37.641Z,20.99
2023-08-17T05:37:09.396Z,21.40
2023-08-17T05:37:41.296Z,21.28
2023-08-17T05:38:13.127Z,20.99
2023-08-17T05:38:46.423Z,20.91
2023-08-17T05:39:19.057Z,21.27
2023-08-17T05:39:50.962Z,21.49
2023-08-17T05:40:22.946Z,21.58
2023-08-17T05:40:58.988Z,21.79
2023-08-17T05:41:30.848Z,21.67
2023-08-17T05:42:02.884Z,21.66
2023-08-17T05:42:34.769Z,21.53
2023-08-17T05:43:06.588Z,21.54
2023-08-17T05:43:38.368Z,21.54
2023-08-17T05:44:10.929Z,21.61
2023-08-17T05:44:42.807Z,21.39
2023-08-17T05:45:14.579Z,21.65
2023-08-17T05:45:46.324Z,21.81
2023-08-17T05:46:18.187Z,21.48
2023-08-17T05:46:49.982Z,21.38
2023-08-17T05:47:21.834Z,21.85
2023-08-17T05:47:54.051Z,21.81
2023-08-17T05:48:26.371Z,22.01
2023-08-17T05:48:59.740Z,22.21
2023-08-17T05:49:32.107Z,22.04
2023-08-17T05:50:04.294Z,21.88
2023-08-17T05:50:36.088Z,21.97
2023-08-17T05:51:08.232Z,21.86
2023-08-17T05:51:40.106Z,21.85
2023-08-17T05:52:12.539Z,21.92
2023-08-17T05:52:44.314Z,22.00
2023-08-17T05:53:16.139Z,22.18
2023-08-17T05:53:47.926Z,22.63
2023-08-17T05:54:19.768Z,22.10
2023-08-17T05:54:51.484Z,21.92
2023-08-17T05:55:23.332Z,21.69
2023-08-17T05:55:55.125Z,21.88
2023-08-17T05:56:26.967Z,21.96
2023-08-17T05:56:58.699Z,22.18
2023-08-17T05:57:30.566Z,22.20
2023-08-17T05:58:03.173Z,22.35
2023-08-17T05:58:35.022Z,22.95
2023-08-17T05:59:06.805Z,22.99
2023-08-17T05:59:38.613Z,22.74
2023-08-17T06:00:14.460Z,22.70
2023-08-17T06:00:48.496Z,23.37
2023-08-17T06:01:20.368Z,23.48
2023-08-17T06:01:52.236Z,22.97
2023-08-17T06:02:24.071Z,22.86
2023-08-17T06:03:02.109Z,22.80
2023-08-17T06:03:34.927Z,22.66
2023-08-17T06:04:07.580Z,22.58
2023-08-17T06:04:39.366Z,22.74
2023-08-17T06:05:11.196Z,22.64
2023-08-17T06:05:43.000Z,22.51
2023-08-17T06:06:14.801Z,22.74
2023-08-17T06:06:46.660Z,22.76
2023-08-17T06:07:18.708Z,23.11
2023-08-17T06:07:50.481Z,23.16
2023-08-17T06:08:22.329Z,23.29
2023-08-17T06:08:54.191Z,23.76
2023-08-17T06:09:26.101Z,23.81
2023-08-17T06:09:57.871Z,23.82
2023-08-17T06:10:29.699Z,23.92
2023-08-17T06:11:01.690Z,23.85
2023-08-17T06:11:33.470Z,24.04
2023-08-17T06:12:05.777Z,23.80
2023-08-17T06:12:37.584Z,23.98
2023-08-17T06:13:09.421Z,23.79
2023-08-17T06:13:41.237Z,23.48
2023-08-17T06:14:13.349Z,23.55
2023-08-17T06:14:46.435Z,23.60
2023-08-17T06:15:18.287Z,23.66
2023-08-17T06:15:50.147Z,23.48
2023-08-17T06:16:22.111Z,23.53
2023-08-17T06:16:54.004Z,23.57
2023-08-17T06:17:26.313Z,23.37
2023-08-17T06:17:58.314Z,22.89
2023-08-17T06:18:30.962Z,23.11
2023-08-17T06:19:02.767Z,22.96
2023-08-17T06:19:36.924Z,23.36
2023-08-17T06:20:10.945Z,23.24
2023-08-17T06:20:43.015Z,23.33
2023-08-17T06:21:18.158Z,23.27
2023-08-17T06:21:50.035Z,23.06
2023-08-17T06:22:21.789Z,23.38
2023-08-17T06:22:58.228Z,23.34
2023-08-17T06:23:30.596Z,23.72
2023-08-17T06:24:02.362Z,24.03
2023-08-17T06:24:34.710Z,23.87
2023-08-17T06:25:07.093Z,23.54
2023-08-17T06:25:38.847Z,23.54
2023-08-17T06:26:10.730Z,24.04
2023-08-17T06:26:42.640Z,24.18
2023-08-17T06:27:15.917Z,23.84
2023-08-17T06:27:50.287Z,24.09
2023-08-17T06:28:22.017Z,24.52
2023-08-17T06:28:53.798Z,24.36
2023-08-17T06:29:25.601Z,24.33
2023-08-17T06:29:57.432Z,24.29
2023-08-17T06:30:29.211Z,24.55
2023-08-17T06:31:01.085Z,24.55
2023-08-17T06:31:33.042Z,25.03
2023-08-17T06:32:05.149Z,24.29
2023-08-17T06:32:37.129Z,24.55
2023-08-17T06:33:08.990Z,24.60
2023-08-17T06:33:40.765Z,24.10
2023-08-17T06:34:13.412Z,24.05
2023-08-17T06:34:45.353Z,24.46
2023-08-17T06:35:17.220Z,24.19
2023-08-17T06:35:50.235Z,24.37
2023-08-17T06:36:22.741Z,24.32
2023-08-17T06:36:59.492Z,24.02
2023-08-17T06:37:31.447Z,24.25
2023-08-17T06:38:03.380Z,24.48
2023-08-17T06:38:35.177Z,24.43
2023-08-17T06:39:06.925Z,24.19
2023-08-17T06:39:38.709Z,24.82
2023-08-17T06:40:10.946Z,24.72
2023-08-17T06:40:42.899Z,24.39
2023-08-17T06:41:14.830Z,24.57
2023-08-17T06:41:46.781Z,25.00
2023-08-17T06:42:18.661Z,24.97
2023-08-17T06:42:50.624Z,24.81
2023-08-17T06:43:22.582Z,25.07
2023-08-17T06:43:54.369Z,25.34
2023-08-17T06:44:26.240Z,25.14
2023-08-17T06:44:58.128Z,25.34
2023-08-17T06:45:30.057Z,25.54
2023-08-17T06:46:02.878Z,24.78
2023-08-17T06:46:34.770Z,25.08
2023-08-17T06:47:06.657Z,25.30
2023-08-17T06:47:38.524Z,25.13
2023-08-17T06:48:10.391Z,25.32
2023-08-17T06:48:42.224Z,25.67
2023-08-17T06:49:14.087Z,26.25
2023-08-17T06:49:45.995Z,26.77
2023-08-17T06:50:17.877Z,26.17
2023-08-17T06:50:49.678Z,25.61
2023-08-17T06:51:21.484Z,25.84
2023-08-17T06:51:53.285Z,25.55
2023-08-17T06:52:25.514Z,25.27
2023-08-17T06:52:57.345Z,24.86
2023-08-17T06:53:29.138Z,24.98
2023-08-17T06:54:01.067Z,24.87
2023-08-17T06:54:33.602Z,25.00
2023-08-17T06:55:05.765Z,25.14
2023-08-17T06:55:37.660Z,25.64
2023-08-17T06:56:10.675Z,25.72
2023-08-17T06:56:42.541Z,25.88
2023-08-17T06:57:14.360Z,25.41
2023-08-17T06:57:46.248Z,25.30
2023-08-17T06:58:18.112Z,25.26
2023-08-17T06:58:49.916Z,25.12
2023-08-17T06:59:21.721Z,25.10
2023-08-17T06:59:53.709Z,25.37
2023-08-17T07:00:25.709Z,25.39
2023-08-17T07:00:57.521Z,25.00
2023-08-17T07:01:29.537Z,24.72
2023-08-17T07:02:01.460Z,24.83
2023-08-17T07:02:50.567Z,24.78